地図

経路データ

SID SEASON NUMBER BASIN SUBBASIN NAME ISO_TIME NATURE LAT LON WMO_WIND WMO_PRES WMO_AGENCY TRACK_TYPE DIST2LAND LANDFALL IFLAG USA_AGENCY USA_ATCF_ID USA_LAT USA_LON USA_RECORD USA_STATUS USA_WIND USA_PRES USA_SSHS USA_R34_NE USA_R34_SE USA_R34_SW USA_R34_NW USA_R50_NE USA_R50_SE USA_R50_SW USA_R50_NW USA_R64_NE USA_R64_SE USA_R64_SW USA_R64_NW USA_POCI USA_ROCI USA_RMW USA_EYE TOKYO_LAT TOKYO_LON TOKYO_GRADE TOKYO_WIND TOKYO_PRES TOKYO_R50_DIR TOKYO_R50_LONG TOKYO_R50_SHORT TOKYO_R30_DIR TOKYO_R30_LONG TOKYO_R30_SHORT TOKYO_LAND CMA_LAT CMA_LON CMA_CAT CMA_WIND CMA_PRES HKO_LAT HKO_LON HKO_CAT HKO_WIND HKO_PRES NEWDELHI_LAT NEWDELHI_LON NEWDELHI_GRADE NEWDELHI_WIND NEWDELHI_PRES NEWDELHI_CI NEWDELHI_DP NEWDELHI_POCI REUNION_LAT REUNION_LON REUNION_TYPE REUNION_WIND REUNION_PRES REUNION_TNUM REUNION_CI REUNION_RMW REUNION_R34_NE REUNION_R34_SE REUNION_R34_SW REUNION_R34_NW REUNION_R50_NE REUNION_R50_SE REUNION_R50_SW REUNION_R50_NW REUNION_R64_NE REUNION_R64_SE REUNION_R64_SW REUNION_R64_NW BOM_LAT BOM_LON BOM_TYPE BOM_WIND BOM_PRES BOM_TNUM BOM_CI BOM_RMW BOM_R34_NE BOM_R34_SE BOM_R34_SW BOM_R34_NW BOM_R50_NE BOM_R50_SE BOM_R50_SW BOM_R50_NW BOM_R64_NE BOM_R64_SE BOM_R64_SW BOM_R64_NW BOM_ROCI BOM_POCI BOM_EYE BOM_POS_METHOD BOM_PRES_METHOD NADI_LAT NADI_LON NADI_CAT NADI_WIND NADI_PRES WELLINGTON_LAT WELLINGTON_LON WELLINGTON_WIND WELLINGTON_PRES DS824_LAT DS824_LON DS824_STAGE DS824_WIND DS824_PRES TD9636_LAT TD9636_LON TD9636_STAGE TD9636_WIND TD9636_PRES TD9635_LAT TD9635_LON TD9635_WIND TD9635_PRES TD9635_ROCI NEUMANN_LAT NEUMANN_LON NEUMANN_CLASS NEUMANN_WIND NEUMANN_PRES MLC_LAT MLC_LON MLC_CLASS MLC_WIND MLC_PRES USA_GUST BOM_GUST BOM_GUST_PER REUNION_GUST REUNION_GUST_PER USA_SEAHGT USA_SEARAD_NE USA_SEARAD_SE USA_SEARAD_SW USA_SEARAD_NW STORM_SPEED STORM_DIR
2011093N10131 2011 20 WP MM NOT_NAMED 2011-04-02 12:00:00 NR 10.2000 130.500 main 484 477 O_____________ jtwc_wp WP022011 10.2000 130.500 DB 20 1007 -3 6 187
2011093N10131 2011 20 WP MM NOT_NAMED 2011-04-02 15:00:00 NR 9.92500 130.457 main 477 472 P_____________ WP022011 9.92500 130.457 DB 20 1005 -3 5 178
2011093N10131 2011 20 WP MM NOT_NAMED 2011-04-02 18:00:00 NR 9.70000 130.500 main 472 470 O_____________ jtwc_wp WP022011 9.70000 130.500 DB 20 1004 -3 1008 150 45 4 148
2011093N10131 2011 20 WP MM NOT_NAMED 2011-04-02 21:00:00 NR 9.56247 130.690 main 491 489 P_____________ WP022011 9.56247 130.690 DB 20 1004 -3 1008 150 45 5 112
2011093N10131 2011 20 WP MM NOT_NAMED 2011-04-03 00:00:00 NR 9.50000 131.000 main 522 522 O_____________ jtwc_wp WP022011 9.50000 131.000 DB 20 1004 -3 1008 150 45 7 101
2011093N10131 2011 20 WP MM NOT_NAMED 2011-04-03 03:00:00 NR 9.43252 131.378 main 561 561 P_____________ WP022011 9.43252 131.378 DB 20 1005 -3 1008 150 45 8 90
2011093N10131 2011 20 WP MM NOT_NAMED 2011-04-03 06:00:00 NR 9.50000 131.800 main 606 606 O_____________ jtwc_wp WP022011 9.50000 131.800 DB 20 1007 -3 1008 150 45 9 66
2011093N10131 2011 20 WP MM NOT_NAMED 2011-04-03 09:00:00 NR 9.79743 132.192 main 657 657 P_____________ WP022011 9.79743 132.192 DB 20 1007 -3 1008 150 45 11 48
2011093N10131 2011 20 WP MM NOT_NAMED 2011-04-03 12:00:00 NR 10.2000 132.600 main 709 709 O_____________ jtwc_wp WP022011 10.2000 132.600 DB 20 1007 -3 1008 150 45 11 48
2011093N10131 2011 20 WP MM NOT_NAMED 2011-04-03 15:00:00 NR 10.5500 133.050 main 769 769 P_____________ WP022011 10.5500 133.050 DB 20 1005 -3 1008 150 45 12 50
2011093N10131 2011 20 WP MM NOT_NAMED 2011-04-03 18:00:00 TS 10.9800 133.540 main 824 824 O_O___________ jtwc_wp WP022011 10.9000 133.500 DB 20 1004 -3 1008 150 45 11.3000 133.700 0 19 1005 12 51
2011093N10131 2011 20 WP MM NOT_NAMED 2011-04-03 21:00:00 TS 11.3117 133.997 main 885 885 P_P___________ WP022011 11.2424 133.908 DB 20 1004 -3 1008 150 45 11.4502 134.175 0 19 1005 11 55
2011093N10131 2011 20 WP MM NOT_NAMED 2011-04-04 00:00:00 TS 11.6000 134.429 main 936 936 O_O___________ jtwc_wp WP022011 11.6000 134.300 DB 20 1005 -3 1008 150 45 11.6000 134.600 0 19 1005 10 54
2011093N10131 2011 20 WP MM NOT_NAMED 2011-04-04 03:00:00 TS 11.8848 134.810 main 986 986 P_P___________ WP022011 12.0073 134.670 DB 20 1006 -3 1008 150 37 11.7623 134.950 0 19 1005 10 52
2011093N10131 2011 20 WP MM NOT_NAMED 2011-04-04 06:00:00 TS 12.2000 135.200 main 1033 1033 O_O___________ jtwc_wp WP022011 12.4000 135.100 DB 20 1007 -3 1008 150 30 12.0000 135.300 0 19 1005 10 53
2011093N10131 2011 20 WP MM NOT_NAMED 2011-04-04 09:00:00 TS 12.5123 135.666 main 1091 1091 P_P___________ WP022011 12.6849 135.648 DB 20 1007 -3 1008 150 30 12.3397 135.683 0 19 1005 12 56
2011093N10131 2011 20 WP MM NOT_NAMED 2011-04-04 12:00:00 TS 12.9000 136.250 main 1162 1162 O_O___________ jtwc_wp WP022011 13.0000 136.300 DB 20 1007 -3 1008 150 30 12.8000 136.200 0 19 1005 16 56
2011093N10131 2011 20 WP MM NOT_NAMED 2011-04-04 15:00:00 TS 13.4052 136.999 main 1247 1247 P_P___________ WP022011 13.4550 137.028 DB 22 1005 -3 1008 150 30 13.3554 136.970 0 19 1002 19 54
2011093N10131 2011 20 WP MM NOT_NAMED 2011-04-04 18:00:00 TS 14.0000 137.800 main 1345 1345 O_O___________ jtwc_wp WP022011 14.0000 137.800 TD 25 1004 -1 1008 150 30 14.0000 137.800 0 19 1000 19 48
2011093N10131 2011 20 WP MM NOT_NAMED 2011-04-04 21:00:00 TS 14.6718 138.470 main 1433 1433 P_P___________ WP022011 14.6069 138.520 TD 27 1002 -1 1007 175 35 14.7366 138.420 0 24 1000 19 46
2011093N10131 2011 20 WP MM NOT_NAMED 2011-04-05 00:00:00 TS 15.3000 139.200 main 1520 1520 O_O___________ jtwc_wp WP022011 15.2000 139.300 TD 30 1000 -1 1006 200 40 15.4000 139.100 1 29 1000 19 56
2011093N10131 2011 20 WP MM NOT_NAMED 2011-04-05 03:00:00 TS 15.7600 140.130 main 1626 1626 P_P___________ WP022011 15.6949 140.220 TD 30 1000 -1 1005 190 40 15.8250 140.040 1 29 1000 20 67
2011093N10131 2011 20 WP MM NOT_NAMED 2011-04-05 06:00:00 TS 16.1000 141.150 main 1748 1737 O_O___________ jtwc_wp WP022011 16.1000 141.200 TD 30 1000 -1 1004 180 40 16.1000 141.100 1 29 1000 20 72
2011093N10131 2011 20 WP MM NOT_NAMED 2011-04-05 09:00:00 TS 16.3797 142.158 main 1859 1859 P_P___________ WP022011 16.4446 142.150 TD 30 1000 -1 1004 180 40 16.3149 142.166 1 29 1000 20 75
2011093N10131 2011 20 WP MM NOT_NAMED 2011-04-05 12:00:00 TS 16.6000 143.150 main 1968 1958 O_O___________ jtwc_wp WP022011 16.7000 143.100 TD 30 1000 -1 1004 180 40 16.5000 143.200 1 29 1000 19 78
2011093N10131 2011 20 WP MM NOT_NAMED 2011-04-05 15:00:00 TS 16.7882 144.087 main 2031 2031 P_P___________ WP022011 16.8421 144.051 TD 27 1002 -1 1005 170 40 16.7343 144.123 1 29 1000 18 77
2011093N10131 2011 20 WP MM NOT_NAMED 2011-04-05 18:00:00 TS 17.0000 145.000 main 2049 2048 O_O___________ jtwc_wp WP022011 17.0000 145.000 TD 25 1004 -1 1006 160 40 17.0000 145.000 1 29 1000 18 74
2011093N10131 2011 20 WP MM NOT_NAMED 2011-04-05 21:00:00 TS 17.2984 145.920 main 2053 2042 P_P___________ WP022011 17.3034 145.949 TD 22 1005 -1 1005 150 45 17.2935 145.892 1 27 1002 19 70
2011093N10131 2011 20 WP MM NOT_NAMED 2011-04-06 00:00:00 TS 17.6500 146.850 main 2042 O_O___________ jtwc_wp WP022011 17.7000 146.900 DB 20 1007 -3 1005 140 50 17.6000 146.800 1 25 1004 19 68

デジタル台風データ・検索

IBTrACS Databaseについて

本データベースは、米国NOAAが公開する1842年以降の世界の熱帯低気圧のベストトラックデータアーカイブInternational Best Track Archive for Climate Stewardship (IBTrACS)を、ウェブで閲覧しやすい形式に変換したものです。

最終更新日:2021-10-08